createdAt,value
2023-01-08T00:00:40.098Z,6.67
2023-01-08T00:03:01.755Z,7.60
2023-01-08T00:05:23.265Z,10.30
2023-01-08T00:07:44.661Z,7.50
2023-01-08T00:10:06.575Z,8.20
2023-01-08T00:12:28.014Z,8.90
2023-01-08T00:14:49.425Z,8.73
2023-01-08T00:17:10.848Z,7.00
2023-01-08T00:19:32.351Z,9.83
2023-01-08T00:21:53.758Z,7.77
2023-01-08T00:24:15.207Z,7.07
2023-01-08T00:26:36.823Z,12.37
2023-01-08T00:28:58.266Z,7.83
2023-01-08T00:31:19.749Z,9.27
2023-01-08T00:33:41.587Z,8.47
2023-01-08T00:36:11.691Z,7.60
2023-01-08T00:38:33.128Z,7.20
2023-01-08T00:40:54.959Z,8.00
2023-01-08T00:43:16.387Z,7.17
2023-01-08T00:45:37.861Z,7.60
2023-01-08T00:47:59.902Z,6.63
2023-01-08T00:50:21.384Z,8.33
2023-01-08T00:52:42.866Z,7.50
2023-01-08T00:55:04.717Z,5.77
2023-01-08T00:57:26.157Z,6.37
2023-01-08T00:59:47.642Z,7.03
2023-01-08T01:02:09.972Z,6.47
2023-01-08T01:04:31.534Z,9.07
2023-01-08T01:06:52.989Z,7.40
2023-01-08T01:09:14.387Z,7.73
2023-01-08T01:11:35.801Z,10.00
2023-01-08T01:13:57.554Z,9.90
2023-01-08T01:16:19.039Z,9.90
2023-01-08T01:18:40.584Z,9.17
2023-01-08T01:21:02.044Z,9.53
2023-01-08T01:23:23.470Z,10.07
2023-01-08T01:25:45.880Z,9.07
2023-01-08T01:28:07.417Z,9.10
2023-01-08T01:30:28.817Z,9.40
2023-01-08T01:32:50.260Z,11.37
2023-01-08T01:35:11.762Z,8.90
2023-01-08T01:37:33.203Z,9.23
2023-01-08T01:39:56.154Z,8.40
2023-01-08T01:42:38.643Z,8.57
2023-01-08T01:45:00.223Z,8.33
2023-01-08T01:47:36.463Z,8.07
2023-01-08T01:50:01.255Z,8.23
2023-01-08T01:52:25.292Z,8.57
2023-01-08T01:54:46.695Z,8.23
2023-01-08T01:57:08.502Z,7.93
2023-01-08T01:59:29.946Z,6.27
2023-01-08T02:01:52.585Z,7.30
2023-01-08T02:04:14.563Z,8.23
2023-01-08T02:07:08.131Z,9.30
2023-01-08T02:09:43.320Z,9.57
2023-01-08T02:12:18.224Z,9.17
2023-01-08T02:15:24.159Z,9.77
2023-01-08T02:18:00.380Z,7.57
2023-01-08T02:20:40.762Z,9.17
2023-01-08T02:23:45.343Z,10.07
2023-01-08T02:26:25.215Z,8.60
2023-01-08T02:28:52.537Z,13.73
2023-01-08T02:31:16.330Z,8.80
2023-01-08T02:33:37.786Z,8.83
2023-01-08T02:36:23.963Z,9.73
2023-01-08T02:38:53.137Z,8.83
2023-01-08T02:41:17.218Z,10.07
2023-01-08T02:43:51.931Z,9.87
2023-01-08T02:46:19.109Z,9.37
2023-01-08T02:48:51.829Z,9.73
2023-01-08T02:51:24.987Z,8.33
2023-01-08T02:53:51.113Z,10.30
2023-01-08T02:56:17.684Z,9.03
2023-01-08T02:58:41.587Z,8.73
2023-01-08T03:01:06.167Z,9.47
2023-01-08T03:03:29.819Z,9.43
2023-01-08T03:05:59.013Z,9.33
2023-01-08T03:08:21.447Z,9.37
2023-01-08T03:10:49.050Z,9.30
2023-01-08T03:13:26.311Z,9.57
2023-01-08T03:15:53.421Z,9.77
2023-01-08T03:18:21.246Z,9.63
2023-01-08T03:20:45.634Z,10.10
2023-01-08T03:23:11.106Z,9.40
2023-01-08T03:25:37.101Z,9.30
2023-01-08T03:28:04.819Z,9.57
2023-01-08T03:30:29.265Z,9.87
2023-01-08T03:32:51.657Z,10.90
2023-01-08T03:35:17.911Z,10.00
2023-01-08T03:37:43.386Z,9.47
2023-01-08T03:40:16.624Z,9.57
2023-01-08T03:42:38.229Z,9.60
2023-01-08T03:45:00.716Z,9.80
2023-01-08T03:47:23.915Z,12.73
2023-01-08T03:49:46.813Z,9.30
2023-01-08T03:52:08.414Z,10.13
2023-01-08T03:54:32.891Z,9.63
2023-01-08T03:56:54.337Z,10.30
2023-01-08T03:59:16.152Z,11.43
2023-01-08T04:01:37.966Z,10.70
2023-01-08T04:03:59.520Z,11.00
2023-01-08T04:06:20.944Z,10.27
2023-01-08T04:08:42.368Z,9.83
2023-01-08T04:11:03.776Z,12.67
2023-01-08T04:13:25.187Z,10.17
2023-01-08T04:15:50.950Z,8.97
2023-01-08T04:18:12.419Z,10.47
2023-01-08T04:20:33.891Z,10.50
2023-01-08T04:22:55.324Z,8.77
2023-01-08T04:25:16.773Z,9.13
2023-01-08T04:27:38.202Z,9.40
2023-01-08T04:29:59.643Z,9.30
2023-01-08T04:32:21.159Z,9.37
2023-01-08T04:34:42.581Z,9.97
2023-01-08T04:37:04.023Z,9.97
2023-01-08T04:39:25.486Z,8.60
2023-01-08T04:41:46.894Z,9.50
2023-01-08T04:44:09.074Z,8.30
2023-01-08T04:46:30.542Z,8.37
2023-01-08T04:48:52.003Z,9.37
2023-01-08T04:51:13.536Z,7.87
2023-01-08T04:53:37.547Z,7.50
2023-01-08T04:56:07.659Z,9.10
2023-01-08T04:58:29.739Z,7.40
2023-01-08T05:00:51.165Z,9.10
2023-01-08T05:03:12.812Z,8.33
2023-01-08T05:05:34.760Z,7.97
2023-01-08T05:07:56.155Z,10.10
2023-01-08T05:10:17.539Z,8.53
2023-01-08T05:12:38.945Z,8.53
2023-01-08T05:15:00.334Z,10.00
2023-01-08T05:17:21.711Z,10.23
2023-01-08T05:19:43.103Z,8.77
2023-01-08T05:22:04.526Z,8.50
2023-01-08T05:24:25.996Z,9.13
2023-01-08T05:26:47.396Z,9.73
2023-01-08T05:29:10.308Z,11.20
2023-01-08T05:31:31.742Z,9.50
2023-01-08T05:33:53.219Z,12.20
2023-01-08T05:36:14.675Z,9.93
2023-01-08T05:38:36.276Z,9.03
2023-01-08T05:40:57.699Z,8.90
2023-01-08T05:43:19.140Z,9.77
2023-01-08T05:45:40.546Z,7.97
2023-01-08T05:48:05.377Z,8.40
2023-01-08T05:50:26.813Z,7.73
2023-01-08T05:52:48.247Z,8.70
2023-01-08T05:55:09.972Z,10.47
2023-01-08T05:57:31.377Z,10.10
2023-01-08T05:59:52.783Z,9.80
2023-01-08T06:02:14.242Z,10.03
2023-01-08T06:04:35.757Z,10.97
2023-01-08T06:06:57.215Z,10.87
2023-01-08T06:09:19.222Z,9.63
2023-01-08T06:11:40.615Z,9.77
2023-01-08T06:14:02.145Z,9.90
2023-01-08T06:16:23.663Z,9.70
2023-01-08T06:18:45.112Z,9.13
2023-01-08T06:21:06.577Z,10.17
2023-01-08T06:23:28.025Z,8.77
2023-01-08T06:25:54.349Z,9.37
2023-01-08T06:28:15.769Z,8.40
2023-01-08T06:30:37.186Z,10.27
2023-01-08T06:33:00.153Z,9.07
2023-01-08T06:35:21.561Z,10.97
2023-01-08T06:37:43.003Z,11.67
2023-01-08T06:40:04.714Z,7.90
2023-01-08T06:42:26.513Z,8.00
2023-01-08T06:44:47.952Z,7.93
2023-01-08T06:47:09.512Z,7.03
2023-01-08T06:49:30.940Z,7.80
2023-01-08T06:51:52.362Z,7.47
2023-01-08T06:54:13.917Z,8.23
2023-01-08T06:56:48.809Z,9.63
2023-01-08T06:59:14.215Z,9.87
2023-01-08T07:01:35.689Z,7.87
2023-01-08T07:03:57.124Z,8.20
2023-01-08T07:06:20.673Z,8.13
2023-01-08T07:08:42.915Z,7.33
2023-01-08T07:11:04.663Z,8.33
2023-01-08T07:13:26.071Z,8.53
2023-01-08T07:15:47.554Z,7.63
2023-01-08T07:18:11.289Z,7.07
2023-01-08T07:20:33.699Z,8.67
2023-01-08T07:22:55.111Z,8.17
2023-01-08T07:25:16.623Z,6.27
2023-01-08T07:27:38.042Z,10.00
2023-01-08T07:29:59.487Z,6.77
2023-01-08T07:32:20.918Z,5.93
2023-01-08T07:34:42.322Z,6.27
2023-01-08T07:37:04.205Z,6.07
2023-01-08T07:39:25.609Z,6.90
2023-01-08T07:41:47.012Z,5.87
2023-01-08T07:44:08.416Z,7.10
2023-01-08T07:46:29.901Z,5.80
2023-01-08T07:48:51.374Z,7.83
2023-01-08T07:51:12.788Z,7.13
2023-01-08T07:53:35.256Z,6.23
2023-01-08T07:56:08.213Z,6.20
2023-01-08T07:58:29.651Z,5.67
2023-01-08T08:00:51.064Z,5.50
2023-01-08T08:03:12.607Z,4.73
2023-01-08T08:05:34.827Z,5.87
2023-01-08T08:07:56.259Z,4.70
2023-01-08T08:10:17.762Z,4.23
2023-01-08T08:12:39.176Z,5.60
2023-01-08T08:15:00.579Z,3.40
2023-01-08T08:17:22.413Z,3.57
2023-01-08T08:19:45.494Z,4.73
2023-01-08T08:22:06.931Z,5.67
2023-01-08T08:24:28.351Z,6.27
2023-01-08T08:26:51.355Z,5.17
2023-01-08T08:29:12.807Z,3.87
2023-01-08T08:31:34.326Z,3.90
2023-01-08T08:33:55.774Z,4.83
2023-01-08T08:36:17.350Z,3.43
2023-01-08T08:38:39.875Z,4.23
2023-01-08T08:41:01.402Z,4.83
2023-01-08T08:43:22.837Z,4.70
2023-01-08T08:45:44.658Z,5.40
2023-01-08T08:48:07.636Z,4.07
2023-01-08T08:50:29.091Z,5.97
2023-01-08T08:52:50.599Z,8.47
2023-01-08T08:55:17.171Z,7.57
2023-01-08T08:57:38.655Z,7.47
2023-01-08T09:00:01.321Z,9.77
2023-01-08T09:02:23.063Z,11.03
2023-01-08T09:04:44.652Z,7.10
2023-01-08T09:07:06.169Z,10.67
2023-01-08T09:09:27.643Z,10.50
2023-01-08T09:11:49.059Z,9.50
2023-01-08T09:14:10.477Z,10.17
2023-01-08T09:16:33.245Z,10.13
2023-01-08T09:18:54.678Z,8.97
2023-01-08T09:21:16.226Z,10.57
2023-01-08T09:23:38.807Z,8.77
2023-01-08T09:26:04.579Z,8.43
2023-01-08T09:28:26.021Z,10.07
2023-01-08T09:30:47.445Z,9.23
2023-01-08T09:33:09.184Z,10.20
2023-01-08T09:35:34.086Z,62.20
2023-01-08T09:37:56.448Z,18.50
2023-01-08T09:40:18.211Z,8.10
2023-01-08T09:42:39.719Z,6.43
2023-01-08T09:45:02.159Z,5.87
2023-01-08T09:47:36.619Z,5.73
2023-01-08T09:50:04.823Z,4.67
2023-01-08T09:52:26.637Z,4.43
2023-01-08T09:54:48.149Z,4.63
2023-01-08T09:57:16.195Z,4.60
2023-01-08T09:59:38.336Z,3.57
2023-01-08T10:01:59.951Z,6.00
2023-01-08T10:04:26.212Z,5.90
2023-01-08T10:06:52.476Z,7.77
2023-01-08T10:09:15.002Z,8.33
2023-01-08T10:11:43.126Z,6.70
2023-01-08T10:14:08.973Z,7.60
2023-01-08T10:16:36.682Z,6.97
2023-01-08T10:18:59.843Z,6.40
2023-01-08T10:21:29.395Z,7.00
2023-01-08T10:23:54.111Z,7.00
2023-01-08T10:26:25.902Z,7.13
2023-01-08T10:28:47.316Z,7.33
2023-01-08T10:31:15.009Z,5.50
2023-01-08T10:33:45.224Z,5.30
2023-01-08T10:36:09.747Z,4.80
2023-01-08T10:38:34.852Z,6.13
2023-01-08T10:40:57.007Z,6.73
2023-01-08T10:43:22.364Z,6.40
2023-01-08T10:45:57.986Z,6.90
2023-01-08T10:48:19.495Z,5.97
2023-01-08T10:50:40.927Z,5.33
2023-01-08T10:53:06.280Z,5.60
2023-01-08T10:55:39.663Z,4.43
2023-01-08T10:58:04.466Z,3.40
2023-01-08T11:00:29.181Z,4.00
2023-01-08T11:02:50.885Z,3.47
2023-01-08T11:05:12.412Z,3.77
2023-01-08T11:07:37.025Z,3.27
2023-01-08T11:09:58.563Z,2.70
2023-01-08T11:12:41.735Z,2.53
2023-01-08T11:15:07.148Z,2.90
2023-01-08T11:17:29.152Z,3.10
2023-01-08T11:19:51.210Z,2.90
2023-01-08T11:22:23.262Z,2.13
2023-01-08T11:24:45.958Z,2.87
2023-01-08T11:27:16.840Z,3.90
2023-01-08T11:29:47.214Z,7.00
2023-01-08T11:32:15.824Z,4.80
2023-01-08T11:34:51.561Z,2.23
2023-01-08T11:37:26.240Z,2.50
2023-01-08T11:39:48.472Z,6.33
2023-01-08T11:42:25.761Z,3.20
2023-01-08T11:45:05.907Z,3.60
2023-01-08T11:47:53.969Z,5.07
2023-01-08T11:50:40.113Z,2.90
2023-01-08T11:53:18.021Z,2.20
2023-01-08T11:55:45.308Z,2.27
2023-01-08T11:58:49.307Z,2.97
2023-01-08T12:01:29.233Z,1.10
2023-01-08T12:04:19.894Z,2.23
2023-01-08T12:07:21.743Z,1.40
2023-01-08T12:09:56.822Z,1.90
2023-01-08T12:12:24.776Z,3.10
2023-01-08T12:15:15.385Z,3.40
2023-01-08T12:17:43.177Z,3.97
2023-01-08T12:20:20.863Z,3.30
2023-01-08T12:22:52.980Z,2.93
2023-01-08T12:25:49.640Z,2.50
2023-01-08T12:28:32.153Z,2.40
2023-01-08T12:31:12.417Z,1.60
2023-01-08T12:33:47.981Z,2.00
2023-01-08T12:36:12.744Z,1.40
2023-01-08T12:38:39.176Z,2.10
2023-01-08T12:41:07.498Z,1.87
2023-01-08T12:43:33.317Z,1.77
2023-01-08T12:45:59.568Z,2.20
2023-01-08T12:48:28.434Z,2.37
2023-01-08T12:50:56.030Z,1.67
2023-01-08T12:53:30.705Z,2.10
2023-01-08T12:56:14.172Z,2.00
2023-01-08T12:58:53.903Z,1.60
2023-01-08T13:01:30.668Z,1.80
2023-01-08T13:03:54.789Z,1.97
2023-01-08T13:06:19.524Z,2.37
2023-01-08T13:08:46.208Z,4.27
2023-01-08T13:11:08.565Z,1.90
2023-01-08T13:13:45.027Z,2.43
2023-01-08T13:16:20.286Z,3.70
2023-01-08T13:18:51.494Z,3.30
2023-01-08T13:21:14.004Z,2.17
2023-01-08T13:23:35.756Z,1.10
2023-01-08T13:25:59.701Z,4.77
2023-01-08T13:28:44.688Z,2.30
2023-01-08T13:31:27.995Z,1.80
2023-01-08T13:33:52.628Z,3.20
2023-01-08T13:36:30.398Z,2.93
2023-01-08T13:39:21.467Z,3.90
2023-01-08T13:41:56.901Z,2.37
2023-01-08T13:44:30.406Z,3.80
2023-01-08T13:46:57.711Z,4.70
2023-01-08T13:49:38.074Z,5.80
2023-01-08T13:51:59.584Z,2.77
2023-01-08T13:54:35.351Z,1.63
2023-01-08T13:57:04.418Z,3.37
2023-01-08T13:59:49.904Z,2.10
2023-01-08T14:02:25.339Z,2.97
2023-01-08T14:04:51.406Z,2.67
2023-01-08T14:07:14.193Z,2.83
2023-01-08T14:09:35.602Z,2.30
2023-01-08T14:11:57.027Z,2.27
2023-01-08T14:14:21.846Z,3.33
2023-01-08T14:16:43.878Z,5.20
2023-01-08T14:19:05.490Z,5.53
2023-01-08T14:21:27.079Z,3.20
2023-01-08T14:23:50.694Z,2.07
2023-01-08T14:26:25.559Z,3.20
2023-01-08T14:28:54.066Z,4.13
2023-01-08T14:31:22.124Z,4.37
2023-01-08T14:33:44.166Z,2.50
2023-01-08T14:36:07.946Z,2.27
2023-01-08T14:38:29.428Z,3.43
2023-01-08T14:41:00.654Z,2.33
2023-01-08T14:43:22.205Z,3.37
2023-01-08T14:45:49.684Z,5.57
2023-01-08T14:48:18.919Z,3.47
2023-01-08T14:50:43.932Z,3.93
2023-01-08T14:53:20.712Z,4.63
2023-01-08T14:55:45.390Z,4.10
2023-01-08T14:58:15.123Z,3.30
2023-01-08T15:00:37.673Z,4.43
2023-01-08T15:02:59.174Z,2.47
2023-01-08T15:05:32.974Z,3.17
2023-01-08T15:08:03.992Z,4.73
2023-01-08T15:10:39.047Z,4.20
2023-01-08T15:13:00.927Z,4.10
2023-01-08T15:15:23.880Z,2.53
2023-01-08T15:17:45.315Z,4.77
2023-01-08T15:20:16.321Z,2.50
2023-01-08T15:22:37.794Z,4.17
2023-01-08T15:25:07.110Z,4.73
2023-01-08T15:27:31.274Z,2.13
2023-01-08T15:30:01.642Z,3.10
2023-01-08T15:32:23.900Z,4.77
2023-01-08T15:34:46.337Z,3.63
2023-01-08T15:37:07.774Z,3.67
2023-01-08T15:39:29.195Z,2.43
2023-01-08T15:42:09.060Z,15.70
2023-01-08T15:44:30.487Z,4.47
2023-01-08T15:46:52.919Z,3.43
2023-01-08T15:49:14.651Z,4.90
2023-01-08T15:51:38.978Z,4.17
2023-01-08T15:54:01.960Z,2.43
2023-01-08T15:56:23.796Z,2.80
2023-01-08T15:58:45.253Z,3.07
2023-01-08T16:01:06.696Z,2.50
2023-01-08T16:03:30.362Z,2.90
2023-01-08T16:05:51.763Z,4.57
2023-01-08T16:08:13.210Z,7.77
2023-01-08T16:10:34.841Z,2.80
2023-01-08T16:12:56.372Z,2.83
2023-01-08T16:15:18.220Z,5.43
2023-01-08T16:17:40.491Z,4.40
2023-01-08T16:20:03.437Z,2.83
2023-01-08T16:22:24.931Z,4.60
2023-01-08T16:24:46.373Z,2.70
2023-01-08T16:27:09.892Z,4.20
2023-01-08T16:29:31.312Z,2.33
2023-01-08T16:31:52.827Z,3.50
2023-01-08T16:34:15.520Z,2.83
2023-01-08T16:36:36.935Z,4.47
2023-01-08T16:38:58.377Z,8.80
2023-01-08T16:41:19.784Z,3.00
2023-01-08T16:43:41.719Z,2.67
2023-01-08T16:46:04.313Z,3.13
2023-01-08T16:48:25.787Z,3.27
2023-01-08T16:50:47.724Z,2.63
2023-01-08T16:53:09.951Z,3.67
2023-01-08T16:55:31.402Z,5.33
2023-01-08T16:57:55.333Z,5.20
2023-01-08T17:00:17.381Z,2.73
2023-01-08T17:02:39.008Z,4.67
2023-01-08T17:05:00.684Z,5.27
2023-01-08T17:07:22.140Z,3.03
2023-01-08T17:09:43.626Z,7.93
2023-01-08T17:12:05.377Z,6.20
2023-01-08T17:14:26.828Z,10.63
2023-01-08T17:16:49.224Z,6.00
2023-01-08T17:19:12.475Z,7.60
2023-01-08T17:21:33.957Z,6.03
2023-01-08T17:23:55.375Z,7.57
2023-01-08T17:26:20.363Z,5.47
2023-01-08T17:28:41.761Z,3.13
2023-01-08T17:31:05.704Z,2.40
2023-01-08T17:33:27.276Z,1.90
2023-01-08T17:35:48.782Z,3.47
2023-01-08T17:38:10.831Z,4.80
2023-01-08T17:40:32.262Z,2.30
2023-01-08T17:42:55.064Z,2.33
2023-01-08T17:45:17.397Z,2.30
2023-01-08T17:47:39.265Z,2.30
2023-01-08T17:50:02.248Z,2.00
2023-01-08T17:52:25.272Z,2.13
2023-01-08T17:54:50.704Z,1.60
2023-01-08T17:57:12.147Z,3.60
2023-01-08T17:59:33.986Z,2.30
2023-01-08T18:01:55.518Z,2.47
2023-01-08T18:04:17.709Z,2.10
2023-01-08T18:06:39.258Z,4.40
2023-01-08T18:09:00.670Z,3.30
2023-01-08T18:11:22.385Z,2.83
2023-01-08T18:13:43.930Z,2.07
2023-01-08T18:16:08.041Z,2.20
2023-01-08T18:18:29.922Z,1.70
2023-01-08T18:20:54.269Z,1.80
2023-01-08T18:23:15.696Z,2.30
2023-01-08T18:25:41.343Z,1.50
2023-01-08T18:28:02.741Z,1.97
2023-01-08T18:30:24.183Z,2.50
2023-01-08T18:32:45.565Z,1.93
2023-01-08T18:35:07.283Z,3.30
2023-01-08T18:37:28.733Z,3.50
2023-01-08T18:39:50.169Z,2.20
2023-01-08T18:42:26.806Z,2.13
2023-01-08T18:44:48.452Z,2.53
2023-01-08T18:47:12.457Z,2.60
2023-01-08T18:49:33.968Z,2.87
2023-01-08T18:51:55.458Z,3.07
2023-01-08T18:54:16.945Z,2.50
2023-01-08T18:56:38.770Z,3.10
2023-01-08T18:59:00.872Z,4.30
2023-01-08T19:01:22.846Z,2.53
2023-01-08T19:03:44.316Z,2.70
2023-01-08T19:06:14.852Z,2.83
2023-01-08T19:08:36.299Z,2.60
2023-01-08T19:10:57.734Z,3.17
2023-01-08T19:13:19.276Z,3.13
2023-01-08T19:15:40.746Z,2.43
2023-01-08T19:18:04.825Z,5.20
2023-01-08T19:20:27.145Z,5.23
2023-01-08T19:22:48.640Z,4.17
2023-01-08T19:25:10.486Z,5.30
2023-01-08T19:27:34.598Z,3.97
2023-01-08T19:29:56.451Z,16.60
2023-01-08T19:32:18.010Z,4.17
2023-01-08T19:34:39.476Z,5.07
2023-01-08T19:37:01.199Z,11.33
2023-01-08T19:39:22.778Z,5.17
2023-01-08T19:42:02.616Z,4.93
2023-01-08T19:44:24.277Z,5.00
2023-01-08T19:46:45.744Z,21.37
2023-01-08T19:49:07.234Z,18.93
2023-01-08T19:51:32.386Z,12.23
2023-01-08T19:53:55.142Z,5.93
2023-01-08T19:56:16.977Z,5.40
2023-01-08T19:58:38.811Z,3.07
2023-01-08T20:01:05.673Z,3.33
2023-01-08T20:03:28.228Z,5.33
2023-01-08T20:05:49.716Z,7.70
2023-01-08T20:08:11.161Z,5.67
2023-01-08T20:10:32.607Z,6.60
2023-01-08T20:12:54.033Z,6.97
2023-01-08T20:15:17.504Z,5.40
2023-01-08T20:17:42.569Z,5.77
2023-01-08T20:20:04.403Z,4.90
2023-01-08T20:22:27.668Z,5.93
2023-01-08T20:24:50.594Z,4.30
2023-01-08T20:27:12.011Z,5.03
2023-01-08T20:29:33.576Z,5.70
2023-01-08T20:31:57.475Z,5.90
2023-01-08T20:34:18.923Z,7.00
2023-01-08T20:36:40.396Z,5.60
2023-01-08T20:39:09.015Z,7.43
2023-01-08T20:41:30.602Z,4.90
2023-01-08T20:43:52.923Z,5.00
2023-01-08T20:46:14.841Z,5.30
2023-01-08T20:48:42.979Z,6.67
2023-01-08T20:51:12.371Z,5.87
2023-01-08T20:53:36.026Z,4.93
2023-01-08T20:56:01.925Z,5.60
2023-01-08T20:58:23.430Z,5.80
2023-01-08T21:00:45.049Z,5.17
2023-01-08T21:03:06.470Z,5.20
2023-01-08T21:05:27.992Z,5.10
2023-01-08T21:07:49.477Z,5.80
2023-01-08T21:10:12.016Z,6.10
2023-01-08T21:12:35.666Z,5.80
2023-01-08T21:14:57.080Z,6.30
2023-01-08T21:17:18.502Z,6.03
2023-01-08T21:19:39.974Z,5.23
2023-01-08T21:22:01.392Z,6.67
2023-01-08T21:24:22.898Z,5.37
2023-01-08T21:26:45.482Z,6.77
2023-01-08T21:29:08.915Z,6.27
2023-01-08T21:31:30.489Z,6.20
2023-01-08T21:33:53.011Z,5.70
2023-01-08T21:36:20.723Z,5.20
2023-01-08T21:38:42.203Z,6.27
2023-01-08T21:41:06.464Z,6.20
2023-01-08T21:43:47.468Z,5.57
2023-01-08T21:46:09.035Z,6.13
2023-01-08T21:48:30.557Z,5.40
2023-01-08T21:50:51.986Z,6.47
2023-01-08T21:53:31.853Z,6.03
2023-01-08T21:55:53.341Z,7.13
2023-01-08T21:58:14.761Z,6.37
2023-01-08T22:00:37.273Z,6.20
2023-01-08T22:02:59.009Z,7.87
2023-01-08T22:05:20.456Z,7.57
2023-01-08T22:07:41.868Z,8.20
2023-01-08T22:10:05.388Z,6.90
2023-01-08T22:12:27.347Z,6.00
2023-01-08T22:14:49.408Z,6.27
2023-01-08T22:17:10.959Z,5.50
2023-01-08T22:19:32.395Z,7.07
2023-01-08T22:21:54.863Z,6.20
2023-01-08T22:24:16.340Z,6.57
2023-01-08T22:26:37.891Z,7.20
2023-01-08T22:28:59.303Z,12.37
2023-01-08T22:31:20.824Z,6.73
2023-01-08T22:33:42.411Z,6.10
2023-01-08T22:36:05.044Z,5.43
2023-01-08T22:38:26.469Z,6.77
2023-01-08T22:40:47.884Z,8.03
2023-01-08T22:43:09.327Z,7.70
2023-01-08T22:45:31.138Z,9.43
2023-01-08T22:47:52.554Z,8.40
2023-01-08T22:50:14.007Z,8.03
2023-01-08T22:52:35.398Z,10.10
2023-01-08T22:54:58.161Z,8.03
2023-01-08T22:57:19.599Z,9.10
2023-01-08T22:59:41.040Z,10.40
2023-01-08T23:02:02.434Z,8.80
2023-01-08T23:04:23.931Z,9.23
2023-01-08T23:06:45.337Z,8.23
2023-01-08T23:09:06.920Z,9.20
2023-01-08T23:11:28.473Z,8.53
2023-01-08T23:13:53.117Z,8.77
2023-01-08T23:16:17.117Z,11.00
2023-01-08T23:18:39.191Z,8.53
2023-01-08T23:21:11.936Z,9.30
2023-01-08T23:23:33.703Z,9.10
2023-01-08T23:25:55.105Z,9.20
2023-01-08T23:28:16.539Z,9.30
2023-01-08T23:30:40.597Z,8.63
2023-01-08T23:33:02.034Z,9.97
2023-01-08T23:35:23.930Z,8.83
2023-01-08T23:37:45.324Z,8.40
2023-01-08T23:40:07.265Z,9.00
2023-01-08T23:42:29.977Z,10.87
2023-01-08T23:44:51.408Z,9.60
2023-01-08T23:47:12.805Z,9.77
2023-01-08T23:49:34.675Z,11.27
2023-01-08T23:51:56.152Z,12.90
2023-01-08T23:54:17.708Z,12.27
2023-01-08T23:56:40.965Z,10.67
2023-01-08T23:59:03.091Z,11.30
